createdAt,value
2017-07-18T00:01:06.743Z,89.80
2017-07-18T00:03:35.032Z,90.10
2017-07-18T00:06:03.356Z,89.50
2017-07-18T00:08:32.447Z,89.50
2017-07-18T00:11:00.728Z,89.50
2017-07-18T00:13:29.039Z,89.80
2017-07-18T00:15:58.093Z,88.40
2017-07-18T00:18:26.499Z,88.40
2017-07-18T00:20:54.820Z,88.40
2017-07-18T00:23:24.008Z,88.20
2017-07-18T00:25:52.405Z,88.20
2017-07-18T00:28:20.681Z,88.60
2017-07-18T00:30:48.968Z,88.70
2017-07-18T00:33:17.271Z,89.10
2017-07-18T00:35:45.594Z,89.60
2017-07-18T00:38:13.921Z,89.40
2017-07-18T00:40:42.199Z,88.90
2017-07-18T00:43:10.615Z,88.90
2017-07-18T00:45:38.887Z,89.30
2017-07-18T00:48:07.216Z,88.90
2017-07-18T00:50:35.546Z,88.50
2017-07-18T00:53:03.918Z,88.10
2017-07-18T00:55:32.995Z,88.40
2017-07-18T00:58:01.325Z,88.30
2017-07-18T01:00:29.675Z,88.70
2017-07-18T01:02:57.991Z,88.60
2017-07-18T01:05:27.071Z,88.70
2017-07-18T01:07:55.416Z,88.60
2017-07-18T01:10:23.737Z,88.60
2017-07-18T01:12:52.159Z,88.70
2017-07-18T01:15:21.238Z,88.90
2017-07-18T01:17:49.544Z,88.90
2017-07-18T01:20:17.869Z,89.20
2017-07-18T01:22:46.232Z,89.40
2017-07-18T01:25:14.535Z,89.20
2017-07-18T01:27:43.584Z,89.20
2017-07-18T01:30:11.906Z,89.20
2017-07-18T01:32:40.194Z,89.20
2017-07-18T01:35:08.537Z,89.60
2017-07-18T01:37:36.825Z,89.80
2017-07-18T01:40:05.164Z,90.00
2017-07-18T01:42:33.557Z,89.90
2017-07-18T01:45:01.835Z,90.00
2017-07-18T01:47:30.152Z,89.50
2017-07-18T01:49:59.212Z,90.00
2017-07-18T01:52:27.532Z,89.70
2017-07-18T01:54:55.816Z,90.00
2017-07-18T01:57:24.096Z,90.00
2017-07-18T01:59:52.411Z,90.10
2017-07-18T02:02:20.697Z,90.20
2017-07-18T02:04:49.010Z,90.20
2017-07-18T02:07:18.082Z,90.20
2017-07-18T02:09:46.481Z,90.20
2017-07-18T02:12:14.809Z,90.40
2017-07-18T02:14:43.092Z,90.20
2017-07-18T02:17:11.464Z,90.20
2017-07-18T02:19:39.745Z,90.10
2017-07-18T02:22:08.130Z,90.00
2017-07-18T02:24:36.417Z,89.70
2017-07-18T02:27:04.697Z,89.60
2017-07-18T02:29:33.122Z,89.70
2017-07-18T02:32:02.168Z,89.80
2017-07-18T02:34:30.450Z,89.80
2017-07-18T02:36:58.784Z,90.00
2017-07-18T02:39:27.069Z,89.70
2017-07-18T02:41:55.403Z,90.00
2017-07-18T02:44:23.684Z,90.20
2017-07-18T02:46:51.978Z,90.30
2017-07-18T02:49:20.304Z,90.20
2017-07-18T02:51:48.585Z,90.10
2017-07-18T02:54:16.900Z,90.00
2017-07-18T02:56:45.180Z,90.10
2017-07-18T02:59:13.579Z,90.00
2017-07-18T03:01:41.903Z,90.00
2017-07-18T03:04:11.008Z,90.10
2017-07-18T03:06:40.061Z,90.30
2017-07-18T03:09:08.475Z,90.30
2017-07-18T03:11:36.764Z,90.50
2017-07-18T03:14:05.087Z,90.50
2017-07-18T03:16:34.147Z,90.20
2017-07-18T03:19:02.442Z,90.20
2017-07-18T03:21:31.591Z,90.20
2017-07-18T03:24:00.648Z,90.20
2017-07-18T03:26:29.157Z,90.00
2017-07-18T03:28:57.630Z,90.20
2017-07-18T03:31:25.907Z,90.10
2017-07-18T03:33:54.228Z,90.20
2017-07-18T03:36:22.536Z,90.30
2017-07-18T03:38:50.942Z,90.60
2017-07-18T03:41:19.260Z,91.00
2017-07-18T03:43:47.567Z,90.80
2017-07-18T03:46:15.882Z,90.50
2017-07-18T03:48:44.193Z,90.40
2017-07-18T03:51:12.508Z,90.30
2017-07-18T03:53:41.676Z,90.20
2017-07-18T03:56:09.968Z,90.20
2017-07-18T03:58:38.472Z,89.90
2017-07-18T04:01:06.796Z,87.40
2017-07-18T04:03:35.839Z,84.20
2017-07-18T04:06:04.166Z,84.20
2017-07-18T04:08:32.453Z,82.10
2017-07-18T04:11:00.840Z,80.80
2017-07-18T04:13:29.124Z,80.00
2017-07-18T04:15:57.435Z,78.90
2017-07-18T04:18:26.509Z,77.30
2017-07-18T04:20:54.801Z,77.30
2017-07-18T04:23:23.114Z,76.80
2017-07-18T04:25:51.427Z,76.60
2017-07-18T04:28:19.750Z,77.10
2017-07-18T04:30:48.070Z,77.20
2017-07-18T04:33:16.343Z,77.80
2017-07-18T04:35:44.685Z,79.40
2017-07-18T04:38:13.748Z,80.80
2017-07-18T04:40:42.037Z,80.80
2017-07-18T04:43:10.439Z,81.00
2017-07-18T04:45:38.740Z,80.20
2017-07-18T04:48:07.122Z,80.60
2017-07-18T04:50:35.514Z,79.80
2017-07-18T04:53:03.789Z,81.20
2017-07-18T04:55:32.288Z,80.40
2017-07-18T04:58:00.580Z,82.10
2017-07-18T05:00:29.085Z,83.50
2017-07-18T05:02:57.412Z,83.40
2017-07-18T05:05:25.700Z,83.50
2017-07-18T05:07:54.020Z,84.30
2017-07-18T05:10:22.301Z,82.40
2017-07-18T05:12:50.637Z,81.10
2017-07-18T05:15:19.007Z,82.00
2017-07-18T05:17:47.296Z,79.70
2017-07-18T05:20:15.617Z,79.70
2017-07-18T05:22:44.809Z,79.20
2017-07-18T05:25:13.136Z,79.20
2017-07-18T05:27:41.432Z,78.70
2017-07-18T05:30:09.743Z,78.90
2017-07-18T05:32:38.179Z,79.50
2017-07-18T05:35:07.219Z,77.90
2017-07-18T05:37:35.556Z,78.10
2017-07-18T05:40:03.836Z,76.90
2017-07-18T05:42:32.151Z,77.40
2017-07-18T05:45:00.465Z,75.00
2017-07-18T05:47:28.784Z,75.00
2017-07-18T05:49:57.116Z,76.70
2017-07-18T05:52:25.506Z,74.90
2017-07-18T05:54:53.889Z,72.50
2017-07-18T05:57:22.287Z,72.70
2017-07-18T05:59:50.672Z,72.20
2017-07-18T06:02:19.001Z,72.60
2017-07-18T06:04:47.328Z,72.20
2017-07-18T06:07:15.649Z,74.80
2017-07-18T06:09:44.037Z,73.70
2017-07-18T06:12:12.425Z,73.10
2017-07-18T06:14:40.746Z,73.20
2017-07-18T06:17:09.915Z,71.50
2017-07-18T06:19:38.238Z,71.50
2017-07-18T06:22:07.392Z,68.60
2017-07-18T06:24:35.722Z,68.60
2017-07-18T06:27:04.001Z,68.80
2017-07-18T06:29:32.321Z,68.30
2017-07-18T06:32:00.595Z,66.30
2017-07-18T06:34:29.704Z,66.20
2017-07-18T06:36:58.788Z,68.40
2017-07-18T06:39:27.176Z,67.60
2017-07-18T06:41:55.456Z,65.50
2017-07-18T06:44:23.856Z,66.30
2017-07-18T06:46:52.261Z,66.60
2017-07-18T06:49:20.535Z,65.20
2017-07-18T06:51:48.862Z,64.10
2017-07-18T06:54:17.233Z,66.50
2017-07-18T06:56:45.560Z,65.10
2017-07-18T06:59:13.913Z,65.60
2017-07-18T07:01:42.198Z,65.50
2017-07-18T07:04:10.508Z,64.50
2017-07-18T07:06:39.551Z,64.30
2017-07-18T07:09:07.886Z,64.30
2017-07-18T07:11:36.275Z,63.60
2017-07-18T07:14:04.569Z,63.60
2017-07-18T07:16:32.884Z,63.90
2017-07-18T07:19:01.254Z,64.20
2017-07-18T07:21:29.600Z,64.30
2017-07-18T07:23:57.892Z,62.80
2017-07-18T07:26:26.209Z,62.60
2017-07-18T07:28:54.516Z,63.80
2017-07-18T07:31:23.577Z,64.20
2017-07-18T07:33:51.999Z,64.70
2017-07-18T07:36:20.384Z,62.90
2017-07-18T07:38:48.789Z,62.40
2017-07-18T07:41:17.167Z,62.30
2017-07-18T07:43:45.492Z,65.20
2017-07-18T07:46:14.731Z,62.30
2017-07-18T07:48:43.415Z,58.90
2017-07-18T07:51:11.765Z,58.60
2017-07-18T07:53:40.071Z,58.90
2017-07-18T07:56:09.116Z,58.90
2017-07-18T07:58:37.438Z,58.80
2017-07-18T08:01:05.727Z,56.90
2017-07-18T08:03:34.133Z,57.60
2017-07-18T08:06:02.429Z,58.30
2017-07-18T08:08:30.769Z,59.20
2017-07-18T08:10:59.055Z,59.20
2017-07-18T08:13:27.334Z,58.00
2017-07-18T08:15:55.660Z,55.50
2017-07-18T08:18:23.946Z,54.90
2017-07-18T08:20:52.263Z,56.40
2017-07-18T08:23:20.588Z,56.60
2017-07-18T08:25:48.876Z,57.30
2017-07-18T08:28:17.166Z,57.70
2017-07-18T08:30:45.478Z,57.00
2017-07-18T08:33:13.792Z,57.30
2017-07-18T08:35:42.078Z,56.10
2017-07-18T08:38:10.388Z,56.60
2017-07-18T08:40:38.706Z,55.90
2017-07-18T08:43:07.779Z,56.90
2017-07-18T08:45:36.176Z,56.90
2017-07-18T08:48:04.569Z,56.70
2017-07-18T08:50:32.876Z,54.80
2017-07-18T08:53:01.981Z,53.50
2017-07-18T08:55:31.023Z,53.10
2017-07-18T08:57:59.364Z,53.10
2017-07-18T09:00:28.005Z,54.70
2017-07-18T09:02:56.344Z,53.10
2017-07-18T09:05:24.670Z,53.00
2017-07-18T09:07:53.044Z,53.00
2017-07-18T09:10:21.361Z,54.80
2017-07-18T09:12:49.726Z,54.50
2017-07-18T09:15:18.778Z,53.90
2017-07-18T09:17:47.113Z,53.90
2017-07-18T09:20:15.483Z,53.40
2017-07-18T09:22:43.817Z,54.00
2017-07-18T09:25:12.892Z,53.10
2017-07-18T09:27:41.198Z,53.10
2017-07-18T09:30:10.249Z,54.00
2017-07-18T09:32:38.584Z,53.90
2017-07-18T09:35:06.959Z,51.10
2017-07-18T09:37:35.240Z,52.30
2017-07-18T09:40:03.556Z,53.30
2017-07-18T09:42:31.934Z,53.70
2017-07-18T09:45:00.328Z,53.50
2017-07-18T09:47:28.712Z,54.70
2017-07-18T09:49:57.112Z,52.50
2017-07-18T09:52:25.418Z,51.90
2017-07-18T09:54:54.472Z,52.50
2017-07-18T09:57:22.792Z,52.50
2017-07-18T09:59:51.076Z,54.60
2017-07-18T10:02:19.383Z,53.90
2017-07-18T10:04:47.766Z,53.70
2017-07-18T10:07:16.088Z,53.10
2017-07-18T10:09:45.258Z,53.80
2017-07-18T10:12:13.652Z,53.80
2017-07-18T10:14:41.948Z,54.20
2017-07-18T10:17:10.331Z,53.90
2017-07-18T10:19:38.630Z,53.10
2017-07-18T10:22:06.962Z,51.20
2017-07-18T10:24:35.240Z,51.00
2017-07-18T10:27:03.588Z,52.10
2017-07-18T10:29:31.996Z,54.20
2017-07-18T10:32:00.271Z,52.50
2017-07-18T10:34:28.778Z,51.50
2017-07-18T10:36:57.069Z,52.30
2017-07-18T10:39:25.357Z,53.80
2017-07-18T10:41:53.726Z,52.70
2017-07-18T10:44:22.021Z,50.80
2017-07-18T10:46:50.312Z,49.60
2017-07-18T10:49:18.625Z,51.10
2017-07-18T10:51:47.685Z,52.10
2017-07-18T10:54:16.005Z,52.10
2017-07-18T10:56:44.276Z,52.70
2017-07-18T10:59:12.598Z,52.30
2017-07-18T11:01:41.657Z,50.90
2017-07-18T11:04:09.940Z,50.20
2017-07-18T11:06:38.263Z,50.60
2017-07-18T11:09:06.549Z,52.70
2017-07-18T11:11:34.938Z,48.40
2017-07-18T11:14:03.261Z,48.80
2017-07-18T11:16:32.311Z,50.00
2017-07-18T11:19:00.632Z,49.80
2017-07-18T11:21:29.009Z,49.40
2017-07-18T11:23:57.402Z,52.00
2017-07-18T11:26:25.695Z,50.80
2017-07-18T11:28:53.990Z,49.90
2017-07-18T11:31:22.294Z,48.70
2017-07-18T11:33:51.412Z,50.70
2017-07-18T11:36:20.600Z,50.50
2017-07-18T11:38:48.923Z,50.50
2017-07-18T11:41:17.266Z,53.70
2017-07-18T11:43:45.554Z,50.30
2017-07-18T11:46:13.872Z,51.40
2017-07-18T11:48:42.960Z,54.30
2017-07-18T11:51:11.260Z,53.50
2017-07-18T11:53:39.657Z,50.00
2017-07-18T11:56:08.048Z,49.80
2017-07-18T11:58:37.141Z,48.70
2017-07-18T12:01:05.434Z,48.80
2017-07-18T12:03:33.719Z,51.60
2017-07-18T12:06:02.043Z,48.60
2017-07-18T12:08:30.336Z,47.80
2017-07-18T12:10:58.696Z,48.20
2017-07-18T12:13:26.975Z,49.10
2017-07-18T12:15:55.292Z,49.90
2017-07-18T12:18:36.363Z,50.80
2017-07-18T12:21:04.713Z,50.80
2017-07-18T12:23:33.053Z,52.40
2017-07-18T12:26:01.441Z,53.40
2017-07-18T12:28:29.829Z,52.20
2017-07-18T12:30:58.225Z,50.00
2017-07-18T12:33:26.608Z,49.30
2017-07-18T12:35:54.990Z,50.00
2017-07-18T12:38:23.392Z,50.70
2017-07-18T12:40:51.780Z,51.00
2017-07-18T12:43:20.076Z,50.80
2017-07-18T12:45:48.392Z,50.70
2017-07-18T12:48:17.459Z,48.10
2017-07-18T12:50:45.850Z,48.00
2017-07-18T12:53:14.143Z,49.10
2017-07-18T12:55:42.427Z,46.30
2017-07-18T12:58:10.735Z,47.40
2017-07-18T13:00:39.021Z,46.00
2017-07-18T13:03:07.413Z,46.50
2017-07-18T13:05:35.731Z,47.90
2017-07-18T13:08:04.015Z,45.20
2017-07-18T13:10:33.105Z,47.50
2017-07-18T13:13:01.493Z,47.50
2017-07-18T13:15:29.785Z,46.30
2017-07-18T13:17:58.883Z,46.20
2017-07-18T13:20:27.172Z,45.80
2017-07-18T13:22:55.508Z,44.90
2017-07-18T13:25:23.857Z,46.80
2017-07-18T13:27:52.912Z,46.40
2017-07-18T13:30:21.219Z,46.40
2017-07-18T13:32:49.640Z,48.10
2017-07-18T13:35:18.032Z,47.10
2017-07-18T13:37:46.336Z,45.30
2017-07-18T13:40:14.719Z,45.50
2017-07-18T13:42:43.100Z,46.40
2017-07-18T13:45:12.252Z,47.40
2017-07-18T13:47:40.536Z,46.50
2017-07-18T13:50:08.872Z,45.80
2017-07-18T13:52:37.175Z,45.50
2017-07-18T13:55:05.464Z,46.40
2017-07-18T13:57:33.775Z,46.40
2017-07-18T14:00:02.837Z,45.30
2017-07-18T14:02:31.166Z,45.20
2017-07-18T14:05:00.851Z,45.40
2017-07-18T14:07:29.326Z,45.40
2017-07-18T14:09:57.643Z,45.70
2017-07-18T14:12:26.034Z,42.90
2017-07-18T14:14:54.441Z,44.40
2017-07-18T14:17:22.733Z,44.80
2017-07-18T14:19:51.170Z,44.50
2017-07-18T14:22:20.331Z,44.00
2017-07-18T14:24:49.609Z,43.10
2017-07-18T14:27:17.957Z,43.00
2017-07-18T14:29:47.002Z,43.90
2017-07-18T14:32:15.332Z,43.80
2017-07-18T14:34:43.725Z,44.30
2017-07-18T14:37:12.006Z,44.40
2017-07-18T14:39:40.399Z,42.40
2017-07-18T14:42:08.791Z,44.70
2017-07-18T14:44:37.174Z,45.00
2017-07-18T14:47:05.580Z,44.10
2017-07-18T14:49:33.851Z,40.90
2017-07-18T14:52:02.175Z,41.60
2017-07-18T14:54:30.468Z,44.90
2017-07-18T14:56:59.550Z,40.80
2017-07-18T14:59:27.876Z,40.80
2017-07-18T15:01:56.227Z,40.30
2017-07-18T15:04:24.520Z,40.70
2017-07-18T15:06:52.801Z,39.80
2017-07-18T15:09:21.105Z,38.60
2017-07-18T15:11:49.411Z,37.60
2017-07-18T15:14:18.598Z,36.80
2017-07-18T15:16:46.878Z,36.70
2017-07-18T15:19:15.187Z,34.60
2017-07-18T15:21:44.234Z,33.10
2017-07-18T15:24:12.552Z,32.40
2017-07-18T15:26:41.072Z,32.40
2017-07-18T15:29:09.441Z,31.70
2017-07-18T15:31:37.729Z,29.70
2017-07-18T15:34:06.056Z,28.30
2017-07-18T15:36:35.113Z,28.90
2017-07-18T15:39:03.404Z,29.40
2017-07-18T15:41:31.724Z,28.00
2017-07-18T15:44:00.205Z,27.30
2017-07-18T15:46:28.478Z,27.30
2017-07-18T15:48:56.787Z,27.60
2017-07-18T15:51:25.099Z,27.00
2017-07-18T15:53:54.196Z,26.90
2017-07-18T15:56:22.484Z,26.80
2017-07-18T15:58:50.828Z,28.20
2017-07-18T16:01:19.164Z,26.00
2017-07-18T16:03:47.447Z,25.90
2017-07-18T16:06:15.763Z,24.80
2017-07-18T16:08:44.928Z,23.70
2017-07-18T16:11:13.245Z,23.70
2017-07-18T16:13:41.623Z,25.30
2017-07-18T16:16:10.031Z,26.00
2017-07-18T16:18:38.328Z,25.20
2017-07-18T16:21:07.537Z,23.90
2017-07-18T16:23:35.818Z,23.90
2017-07-18T16:26:05.019Z,24.80
2017-07-18T16:28:33.336Z,24.70
2017-07-18T16:31:02.402Z,24.30
2017-07-18T16:33:30.816Z,24.30
2017-07-18T16:35:59.099Z,24.30
2017-07-18T16:38:27.479Z,23.90
2017-07-18T16:40:55.807Z,23.90
2017-07-18T16:43:24.879Z,24.50
2017-07-18T16:45:53.164Z,24.50
2017-07-18T16:48:21.568Z,26.80
2017-07-18T16:50:49.843Z,26.20
2017-07-18T16:53:18.169Z,26.50
2017-07-18T16:55:47.225Z,28.00
2017-07-18T16:58:15.644Z,27.80
2017-07-18T17:00:44.036Z,29.70
2017-07-18T17:03:12.314Z,31.80
2017-07-18T17:05:40.641Z,35.00
2017-07-18T17:08:09.892Z,39.30
2017-07-18T17:10:38.226Z,39.20
2017-07-18T17:13:06.512Z,39.00
2017-07-18T17:15:34.890Z,40.40
2017-07-18T17:18:03.233Z,43.50
2017-07-18T17:20:31.580Z,43.90
2017-07-18T17:22:59.896Z,45.60
2017-07-18T17:25:28.990Z,46.60
2017-07-18T17:27:58.088Z,46.50
2017-07-18T17:30:26.463Z,46.50
2017-07-18T17:32:54.770Z,47.00
2017-07-18T17:35:25.152Z,48.00
2017-07-18T17:37:53.686Z,47.60
2017-07-18T17:40:21.984Z,47.70
2017-07-18T17:42:50.269Z,48.20
2017-07-18T17:45:18.592Z,48.50
2017-07-18T17:47:47.627Z,48.50
2017-07-18T17:50:15.962Z,48.60
2017-07-18T17:52:44.257Z,48.90
2017-07-18T17:55:12.640Z,49.60
2017-07-18T17:57:40.929Z,49.90
2017-07-18T18:00:09.311Z,50.60
2017-07-18T18:02:37.730Z,51.40
2017-07-18T18:05:06.932Z,50.80
2017-07-18T18:07:35.307Z,50.80
2017-07-18T18:10:03.807Z,50.20
2017-07-18T18:12:32.104Z,50.20
2017-07-18T18:15:00.397Z,50.20
2017-07-18T18:17:28.779Z,50.10
2017-07-18T18:19:57.879Z,50.80
2017-07-18T18:22:26.172Z,50.10
2017-07-18T18:24:54.577Z,50.50
2017-07-18T18:27:22.961Z,52.30
2017-07-18T18:29:51.274Z,52.10
2017-07-18T18:32:19.637Z,53.00
2017-07-18T18:34:48.047Z,53.40
2017-07-18T18:37:17.108Z,55.40
2017-07-18T18:39:45.437Z,55.40
2017-07-18T18:42:13.905Z,55.90
2017-07-18T18:44:42.706Z,57.20
2017-07-18T18:47:11.012Z,57.70
2017-07-18T18:49:39.297Z,58.40
2017-07-18T18:52:07.724Z,58.40
2017-07-18T18:54:36.019Z,59.10
2017-07-18T18:57:04.326Z,59.50
2017-07-18T18:59:32.747Z,60.00
2017-07-18T19:02:01.062Z,61.60
2017-07-18T19:04:30.126Z,62.20
2017-07-18T19:06:58.399Z,62.10
2017-07-18T19:09:26.731Z,61.50
2017-07-18T19:11:55.053Z,62.00
2017-07-18T19:14:24.104Z,63.60
2017-07-18T19:16:52.407Z,63.60
2017-07-18T19:19:20.797Z,64.40
2017-07-18T19:21:49.099Z,65.20
2017-07-18T19:24:17.375Z,66.80
2017-07-18T19:26:45.704Z,68.10
2017-07-18T19:29:14.752Z,68.10
2017-07-18T19:31:43.165Z,67.60
2017-07-18T19:34:11.477Z,69.10
2017-07-18T19:36:39.783Z,69.40
2017-07-18T19:39:08.958Z,71.10
2017-07-18T19:41:37.267Z,71.10
2017-07-18T19:44:05.547Z,71.50
2017-07-18T19:46:34.025Z,71.60
2017-07-18T19:49:02.380Z,71.90
2017-07-18T19:51:30.720Z,71.20
2017-07-18T19:53:59.056Z,71.90
2017-07-18T19:56:27.401Z,72.80
2017-07-18T19:58:55.696Z,73.50
2017-07-18T20:01:24.009Z,74.00
2017-07-18T20:03:53.061Z,74.70
2017-07-18T20:06:21.575Z,74.70
2017-07-18T20:08:49.956Z,75.00
2017-07-18T20:11:18.287Z,76.00
2017-07-18T20:13:47.384Z,76.30
2017-07-18T20:16:16.476Z,76.70
2017-07-18T20:18:44.907Z,76.50
2017-07-18T20:21:13.265Z,77.30
2017-07-18T20:23:41.652Z,77.80
2017-07-18T20:26:10.038Z,78.40
2017-07-18T20:28:38.364Z,78.80
2017-07-18T20:31:07.416Z,79.70
2017-07-18T20:33:35.748Z,79.70
2017-07-18T20:36:04.836Z,80.60
2017-07-18T20:38:33.224Z,80.50
2017-07-18T20:41:01.543Z,80.30
2017-07-18T20:43:30.586Z,80.50
2017-07-18T20:45:58.990Z,80.50
2017-07-18T20:48:27.289Z,81.90
2017-07-18T20:50:55.586Z,80.90
2017-07-18T20:55:59.412Z,81.40
2017-07-18T20:58:27.836Z,81.30
2017-07-18T21:00:56.130Z,82.20
2017-07-18T21:03:24.579Z,82.40
2017-07-18T21:05:53.409Z,82.30
2017-07-18T21:08:22.529Z,82.60
2017-07-18T21:10:50.911Z,82.60
2017-07-18T21:13:19.208Z,82.80
2017-07-18T21:15:47.497Z,82.70
2017-07-18T21:18:15.830Z,82.30
2017-07-18T21:20:44.192Z,82.60
2017-07-18T21:23:12.516Z,82.90
2017-07-18T21:25:40.851Z,83.00
2017-07-18T21:28:09.248Z,82.60
2017-07-18T21:30:37.530Z,81.90
2017-07-18T21:33:05.923Z,82.80
2017-07-18T21:35:34.200Z,82.60
2017-07-18T21:38:02.798Z,82.20
2017-07-18T21:40:31.089Z,82.40
2017-07-18T21:42:59.400Z,82.60
2017-07-18T21:45:27.784Z,82.70
2017-07-18T21:47:56.162Z,83.10
2017-07-18T21:50:24.484Z,83.00
2017-07-18T21:52:53.664Z,83.10
2017-07-18T21:55:21.959Z,83.10
2017-07-18T21:57:50.248Z,83.70
2017-07-18T22:00:18.634Z,83.90
2017-07-18T22:02:46.965Z,84.10
2017-07-18T22:05:15.257Z,84.20
2017-07-18T22:07:43.577Z,84.20
2017-07-18T22:10:11.914Z,84.40
2017-07-18T22:12:40.968Z,84.10
2017-07-18T22:15:09.243Z,84.10
2017-07-18T22:17:37.560Z,84.00
2017-07-18T22:20:05.884Z,84.50
2017-07-18T22:22:34.183Z,84.40
2017-07-18T22:25:03.279Z,84.70
2017-07-18T22:27:31.593Z,84.40
2017-07-18T22:30:00.056Z,84.20
2017-07-18T22:32:28.739Z,84.60
2017-07-18T22:34:57.015Z,85.40
2017-07-18T22:37:25.300Z,85.30
2017-07-18T22:39:53.612Z,85.80
2017-07-18T22:42:21.887Z,85.70
2017-07-18T22:44:50.291Z,86.50
2017-07-18T22:47:18.575Z,87.20
2017-07-18T22:49:46.982Z,86.80
2017-07-18T22:52:16.032Z,86.40
2017-07-18T22:54:44.310Z,86.40
2017-07-18T22:57:12.627Z,86.40
2017-07-18T22:59:41.247Z,86.60
2017-07-18T23:02:09.574Z,86.40
2017-07-18T23:04:38.619Z,86.20
2017-07-18T23:07:06.912Z,86.10
2017-07-18T23:09:35.234Z,86.90
2017-07-18T23:12:03.539Z,86.30
2017-07-18T23:14:32.657Z,86.20
2017-07-18T23:17:01.708Z,86.70
2017-07-18T23:19:30.028Z,86.60
2017-07-18T23:21:58.343Z,86.90
2017-07-18T23:24:27.536Z,86.80
2017-07-18T23:26:55.815Z,86.60
2017-07-18T23:29:24.141Z,86.90
2017-07-18T23:31:52.424Z,87.30
2017-07-18T23:34:21.471Z,87.70
2017-07-18T23:36:49.793Z,87.70
2017-07-18T23:39:18.085Z,88.30
2017-07-18T23:41:46.386Z,88.10
2017-07-18T23:44:15.463Z,88.70
2017-07-18T23:46:43.739Z,88.70
2017-07-18T23:49:12.056Z,89.30
2017-07-18T23:51:40.376Z,88.60
2017-07-18T23:54:09.556Z,88.60
2017-07-18T23:56:37.855Z,88.60
2017-07-18T23:59:06.241Z,88.10
